Time;durP1;ratioP1;P1;durP2;ratioP2;P2;SDS_P1;SDS_P2;PMS_P1;PMS_P2;Temp;Humidity;BMP_temperature;BMP_pressure;BME280_temperature;BME280_humidity;BME280_pressure;Samples;Min_cycle;Max_cycle;Signal;HPM_P1;HPM_P2
2024/01/09 00:22:41;;;;;;;9.8;4;;;;;;;;;;;;;-80
2024/01/09 00:52:39;;;;;;;8.5;3.9;;;;;;;;;;;;;-80
2024/01/09 01:22:41;;;;;;;9.9;3;;;;;;;;;;;;;-82
2024/01/09 01:52:36;;;;;;;8.1;3;;;;;;;;;;;;;-80
2024/01/09 02:22:36;;;;;;;6.2;2.6;;;;;;;;;;;;;-80
2024/01/09 02:52:33;;;;;;;5.6;2.5;;;;;;;;;;;;;-80
2024/01/09 03:22:41;;;;;;;5.6;2.6;;;;;;;;;;;;;-81
2024/01/09 03:52:33;;;;;;;6.6;2.5;;;;;;;;;;;;;-79
2024/01/09 04:22:32;;;;;;;4;2;;;;;;;;;;;;;-81
2024/01/09 04:52:37;;;;;;;4;1.9;;;;;;;;;;;;;-80
2024/01/09 05:22:33;;;;;;;3.9;1.9;;;;;;;;;;;;;-81
2024/01/09 05:52:31;;;;;;;5.3;2;;;;;;;;;;;;;-81
2024/01/09 06:22:37;;;;;;;6;1.9;;;;;;;;;;;;;-81
2024/01/09 06:52:33;;;;;;;4;2;;;;;;;;;;;;;-82
2024/01/09 07:22:26;;;;;;;4.7;1.9;;;;;;;;;;;;;-81
2024/01/09 07:52:19;;;;;;;4.5;1.6;;;;;;;;;;;;;-81
2024/01/09 08:22:28;;;;;;;5.6;1.7;;;;;;;;;;;;;-81
2024/01/09 08:52:24;;;;;;;2.8;1.3;;;;;;;;;;;;;-81
2024/01/09 09:22:17;;;;;;;5.2;1.8;;;;;;;;;;;;;-81
2024/01/09 09:52:15;;;;;;;2.9;1.6;;;;;;;;;;;;;-78
2024/01/09 10:22:15;;;;;;;4.3;1.7;;;;;;;;;;;;;-79
2024/01/09 10:52:15;;;;;;;10;1.8;;;;;;;;;;;;;-79
2024/01/09 11:22:20;;;;;;;4.7;1.8;;;;;;;;;;;;;-79
2024/01/09 11:52:10;;;;;;;4.8;1.7;;;;;;;;;;;;;-80
2024/01/09 12:22:11;;;;;;;6.8;2.1;;;;;;;;;;;;;-81
2024/01/09 12:52:16;;;;;;;9.7;1.9;;;;;;;;;;;;;-80
2024/01/09 13:22:29;;;;;;;5.5;1.9;;;;;;;;;;;;;-81
2024/01/09 13:52:18;;;;;;;4.4;1.9;;;;;;;;;;;;;-80
2024/01/09 14:22:07;;;;;;;4.3;1.6;;;;;;;;;;;;;-80
2024/01/09 14:52:08;;;;;;;4.9;2;;;;;;;;;;;;;-80
2024/01/09 15:22:06;;;;;;;6.1;2.2;;;;;;;;;;;;;-80
2024/01/09 15:52:03;;;;;;;3.5;1.7;;;;;;;;;;;;;-80
2024/01/09 16:22:03;;;;;;;4.7;1.9;;;;;;;;;;;;;-79
2024/01/09 16:52:03;;;;;;;5.4;2;;;;;;;;;;;;;-80
2024/01/09 17:22:05;;;;;;;4;1.6;;;;;;;;;;;;;-81
2024/01/09 17:52:08;;;;;;;3.1;1.3;;;;;;;;;;;;;-81
2024/01/09 18:22:08;;;;;;;2.9;1.4;;;;;;;;;;;;;-81
2024/01/09 18:51:58;;;;;;;4.8;1.7;;;;;;;;;;;;;-82
2024/01/09 19:22:02;;;;;;;4.8;1.8;;;;;;;;;;;;;-80
2024/01/09 19:52:04;;;;;;;6;2.5;;;;;;;;;;;;;-79
2024/01/09 20:22:05;;;;;;;4.5;2.1;;;;;;;;;;;;;-79
2024/01/09 20:51:59;;;;;;;5.5;2.5;;;;;;;;;;;;;-81
2024/01/09 21:21:58;;;;;;;7.7;2.3;;;;;;;;;;;;;-81
2024/01/09 22:22:00;;;;;;;7.3;2.8;;;;;;;;;;;;;-79
2024/01/09 22:51:52;;;;;;;8;3.5;;;;;;;;;;;;;-80
2024/01/09 23:21:54;;;;;;;9.4;4.2;;;;;;;;;;;;;-80
2024/01/09 23:51:51;;;;;;;12;5;;;;;;;;;;;;;-80
